Time;durP1;ratioP1;P1;durP2;ratioP2;P2;SDS_P1;SDS_P2;PMS_P1;PMS_P2;Temp;Humidity;BMP_temperature;BMP_pressure;BME280_temperature;BME280_humidity;BME280_pressure;Samples;Min_cycle;Max_cycle;Signal;HPM_P1;HPM_P2
2022/08/02 00:00:52;;;;;;;2.70;1.15;;;;;;;;;;4999946;28;20404;-80
2022/08/02 00:03:17;;;;;;;2.95;1.13;;;;;;;;;;5016601;28;20104;-79
2022/08/02 00:05:43;;;;;;;1.92;1.15;;;;;;;;;;5016228;28;20114;-80
2022/08/02 00:08:08;;;;;;;3.30;1.20;;;;;;;;;;5016435;28;20420;-79
2022/08/02 00:10:34;;;;;;;2.20;1.17;;;;;;;;;;5032803;28;20042;-80
2022/08/02 00:12:59;;;;;;;3.55;1.00;;;;;;;;;;5015486;28;20385;-79
2022/08/02 00:15:25;;;;;;;1.48;0.93;;;;;;;;;;5015648;28;20040;-80
2022/08/02 00:17:50;;;;;;;4.13;1.27;;;;;;;;;;5016174;28;20419;-80
2022/08/02 00:20:16;;;;;;;2.28;1.13;;;;;;;;;;5032253;28;20116;-79
2022/08/02 00:22:41;;;;;;;2.17;1.45;;;;;;;;;;5016430;28;20427;-79
2022/08/02 00:25:07;;;;;;;3.85;1.33;;;;;;;;;;5015938;28;20061;-79
2022/08/02 00:27:32;;;;;;;1.90;0.88;;;;;;;;;;5015724;28;20452;-80
2022/08/02 00:29:58;;;;;;;1.65;0.93;;;;;;;;;;5032673;28;20491;-79
2022/08/02 00:32:23;;;;;;;2.47;1.00;;;;;;;;;;5032480;28;20041;-80
2022/08/02 00:34:49;;;;;;;2.92;1.33;;;;;;;;;;5032570;28;20033;-80
2022/08/02 00:37:14;;;;;;;2.10;1.05;;;;;;;;;;5015812;28;20412;-79
2022/08/02 00:39:41;;;;;;;1.45;0.80;;;;;;;;;;5015698;28;20033;-81
2022/08/02 00:42:06;;;;;;;2.95;1.10;;;;;;;;;;4999383;28;20039;-80
2022/08/02 00:44:32;;;;;;;2.53;0.82;;;;;;;;;;5032088;28;20478;-81
2022/08/02 00:46:57;;;;;;;3.25;0.98;;;;;;;;;;5031991;28;20037;-80
2022/08/02 00:49:23;;;;;;;2.03;1.15;;;;;;;;;;5015087;28;20120;-81
2022/08/02 00:51:48;;;;;;;1.75;0.98;;;;;;;;;;5031984;28;20159;-81
2022/08/02 00:54:14;;;;;;;1.63;1.00;;;;;;;;;;5015607;28;20049;-80
2022/08/02 00:56:39;;;;;;;2.00;0.93;;;;;;;;;;5015234;28;20116;-79
2022/08/02 00:59:04;;;;;;;1.88;1.00;;;;;;;;;;5015383;28;20044;-80
2022/08/02 01:01:39;;;;;;;1.60;0.95;;;;;;;;;;5015092;28;20427;-79
2022/08/02 01:04:09;;;;;;;2.13;1.00;;;;;;;;;;5032197;28;20037;-79
2022/08/02 01:06:36;;;;;;;2.50;1.00;;;;;;;;;;5032042;28;20041;-79
2022/08/02 01:09:02;;;;;;;3.92;0.90;;;;;;;;;;5015529;28;20116;-79
2022/08/02 01:11:28;;;;;;;1.52;0.98;;;;;;;;;;5014701;28;20033;-79
2022/08/02 01:14:01;;;;;;;2.67;1.05;;;;;;;;;;5015407;28;20041;-80
2022/08/02 01:16:27;;;;;;;4.07;1.30;;;;;;;;;;5015043;28;20045;-79
2022/08/02 01:18:55;;;;;;;2.35;1.00;;;;;;;;;;5014885;28;20041;-80
2022/08/02 01:21:42;;;;;;;5.25;1.42;;;;;;;;;;5014850;28;20033;-79
2022/08/02 01:24:32;;;;;;;2.60;1.30;;;;;;;;;;5032297;28;20522;-79
2022/08/02 01:27:20;;;;;;;2.35;1.10;;;;;;;;;;5047367;28;20068;-79
2022/08/02 01:29:45;;;;;;;1.88;0.90;;;;;;;;;;5032484;28;20041;-78
2022/08/02 01:32:16;;;;;;;1.55;0.93;;;;;;;;;;5015224;28;20111;-79
2022/08/02 01:34:48;;;;;;;2.22;1.30;;;;;;;;;;5030970;28;20088;-79
2022/08/02 01:37:19;;;;;;;1.75;1.08;;;;;;;;;;5048101;28;20052;-79
2022/08/02 01:39:45;;;;;;;2.55;1.38;;;;;;;;;;4998160;28;20041;-78
2022/08/02 01:42:10;;;;;;;1.70;1.08;;;;;;;;;;5031404;28;20491;-79
2022/08/02 01:44:37;;;;;;;2.00;0.90;;;;;;;;;;5030792;28;20048;-78
2022/08/02 01:47:08;;;;;;;3.10;1.10;;;;;;;;;;5030965;28;20068;-79
2022/08/02 01:49:34;;;;;;;2.67;1.13;;;;;;;;;;5014237;28;20038;-79
2022/08/02 01:54:43;;;;;;;1.98;0.90;;;;;;;;;;5030871;28;20025;-79
2022/08/02 01:57:09;;;;;;;2.78;1.38;;;;;;;;;;5014287;28;20158;-79
2022/08/02 01:59:34;;;;;;;2.33;1.10;;;;;;;;;;5014415;28;20059;-79
2022/08/02 02:02:00;;;;;;;2.85;1.38;;;;;;;;;;5014328;28;20500;-79
2022/08/02 02:04:26;;;;;;;3.38;1.42;;;;;;;;;;5030628;28;20056;-79
2022/08/02 02:06:52;;;;;;;2.38;1.33;;;;;;;;;;5031158;28;20041;-79
2022/08/02 02:09:18;;;;;;;1.33;0.88;;;;;;;;;;4997570;28;20045;-79
2022/08/02 02:11:43;;;;;;;2.20;1.42;;;;;;;;;;5014755;28;20049;-79
2022/08/02 02:14:09;;;;;;;2.30;1.10;;;;;;;;;;5013905;28;20029;-79
2022/08/02 02:16:34;;;;;;;2.60;1.10;;;;;;;;;;5030540;28;20049;-79
2022/08/02 02:19:00;;;;;;;1.80;1.00;;;;;;;;;;4997695;28;20159;-79
2022/08/02 02:21:26;;;;;;;2.38;1.20;;;;;;;;;;5030372;28;20040;-80
2022/08/02 02:23:51;;;;;;;3.40;1.08;;;;;;;;;;5013828;28;20037;-80
2022/08/02 02:26:17;;;;;;;2.80;1.17;;;;;;;;;;5013693;28;20072;-80
2022/08/02 02:28:42;;;;;;;2.30;1.10;;;;;;;;;;5013917;28;20450;-79
2022/08/02 02:31:12;;;;;;;1.95;0.93;;;;;;;;;;5013790;28;20116;-80
2022/08/02 02:33:50;;;;;;;2.28;1.23;;;;;;;;;;5013867;28;20084;-80
2022/08/02 02:36:17;;;;;;;1.95;1.17;;;;;;;;;;5013318;28;20075;-80
2022/08/02 02:38:42;;;;;;;2.45;1.10;;;;;;;;;;5013986;28;20025;-80
2022/08/02 02:41:08;;;;;;;1.83;1.00;;;;;;;;;;5013767;28;20112;-80
2022/08/02 02:43:33;;;;;;;1.80;0.77;;;;;;;;;;5013757;28;20400;-81
2022/08/02 02:46:00;;;;;;;2.33;1.15;;;;;;;;;;4997973;28;20466;-80
2022/08/02 02:48:26;;;;;;;1.95;1.08;;;;;;;;;;5033844;28;20040;-79
2022/08/02 02:50:51;;;;;;;1.60;0.80;;;;;;;;;;5033348;28;20045;-79
2022/08/02 02:53:17;;;;;;;3.63;1.13;;;;;;;;;;5017014;28;20040;-79
2022/08/02 02:55:42;;;;;;;1.90;1.20;;;;;;;;;;5017343;28;20368;-79
2022/08/02 02:58:08;;;;;;;1.40;0.90;;;;;;;;;;5017179;28;20049;-80
2022/08/02 03:03:17;;;;;;;2.22;1.23;;;;;;;;;;5022079;28;20036;-79
2022/08/02 03:05:43;;;;;;;2.65;1.55;;;;;;;;;;5016694;28;20091;-79
2022/08/02 03:08:08;;;;;;;2.53;0.80;;;;;;;;;;5033506;28;20417;-79
2022/08/02 03:10:33;;;;;;;1.83;1.08;;;;;;;;;;5033340;28;20100;-80
2022/08/02 03:12:59;;;;;;;2.15;0.80;;;;;;;;;;5017244;28;20041;-80
2022/08/02 03:15:25;;;;;;;2.55;1.27;;;;;;;;;;5016474;28;20461;-80
2022/08/02 03:17:51;;;;;;;2.17;1.25;;;;;;;;;;5000718;28;20056;-79
2022/08/02 03:20:17;;;;;;;6.70;1.33;;;;;;;;;;5016121;28;20454;-79
2022/08/02 03:22:43;;;;;;;1.85;1.08;;;;;;;;;;5033449;28;20033;-80
2022/08/02 03:25:09;;;;;;;2.00;0.93;;;;;;;;;;5033134;28;20147;-79
2022/08/02 03:27:35;;;;;;;3.60;1.02;;;;;;;;;;5017088;28;20037;-79
2022/08/02 03:30:00;;;;;;;3.50;1.45;;;;;;;;;;5016963;28;20044;-79
2022/08/02 03:32:26;;;;;;;1.95;0.82;;;;;;;;;;5049916;28;20399;-80
2022/08/02 03:34:51;;;;;;;1.88;1.05;;;;;;;;;;5032772;28;20063;-79
2022/08/02 03:37:17;;;;;;;1.63;0.77;;;;;;;;;;5016597;28;20098;-79
2022/08/02 03:39:42;;;;;;;3.13;1.30;;;;;;;;;;5033019;28;20417;-79
2022/08/02 03:42:08;;;;;;;1.75;0.93;;;;;;;;;;5016696;28;20094;-80
2022/08/02 03:44:33;;;;;;;2.25;1.15;;;;;;;;;;5016480;28;20407;-80
2022/08/02 03:46:59;;;;;;;2.28;1.55;;;;;;;;;;5016620;28;20037;-79
2022/08/02 03:49:24;;;;;;;1.90;0.82;;;;;;;;;;5034539;28;20047;-79
2022/08/02 03:51:51;;;;;;;1.98;0.93;;;;;;;;;;5019944;28;20408;-80
2022/08/02 03:54:16;;;;;;;2.13;0.98;;;;;;;;;;5036465;28;20052;-80
2022/08/02 03:56:42;;;;;;;2.05;1.10;;;;;;;;;;5036367;28;20045;-80
2022/08/02 03:59:11;;;;;;;1.75;0.85;;;;;;;;;;5019858;28;20049;-80
2022/08/02 04:01:36;;;;;;;2.17;1.02;;;;;;;;;;5020225;28;20025;-80
2022/08/02 04:04:02;;;;;;;2.60;0.98;;;;;;;;;;5036353;28;20085;-80
2022/08/02 04:06:28;;;;;;;1.60;0.80;;;;;;;;;;5019769;28;20033;-80
2022/08/02 04:08:53;;;;;;;2.03;1.00;;;;;;;;;;5019597;28;20523;-80
2022/08/02 04:11:30;;;;;;;5.25;1.17;;;;;;;;;;5019626;28;20052;-81
2022/08/02 04:14:00;;;;;;;5.65;1.25;;;;;;;;;;5021359;28;20033;-80
2022/08/02 04:16:46;;;;;;;1.40;0.90;;;;;;;;;;5019961;28;20041;-80
2022/08/02 04:19:52;;;;;;;2.10;1.20;;;;;;;;;;5037193;28;20048;-80
2022/08/02 04:22:28;;;;;;;2.60;1.17;;;;;;;;;;5028917;28;20128;-79
2022/08/02 04:24:59;;;;;;;2.85;1.00;;;;;;;;;;5019647;28;20112;-79
2022/08/02 04:27:24;;;;;;;2.47;1.02;;;;;;;;;;5002940;28;20079;-79
2022/08/02 04:29:50;;;;;;;2.70;1.05;;;;;;;;;;5019427;28;20029;-79
2022/08/02 04:32:15;;;;;;;2.20;0.95;;;;;;;;;;5019116;28;20029;-79
2022/08/02 04:34:44;;;;;;;2.22;0.93;;;;;;;;;;5003042;28;20029;-79
2022/08/02 04:37:11;;;;;;;1.45;0.80;;;;;;;;;;5019711;28;20049;-78
2022/08/02 04:39:36;;;;;;;2.60;1.27;;;;;;;;;;5019208;28;20038;-79
2022/08/02 04:42:02;;;;;;;1.67;1.02;;;;;;;;;;5035699;28;20051;-79
2022/08/02 04:44:27;;;;;;;1.80;1.23;;;;;;;;;;5018843;28;20404;-79
2022/08/02 04:46:54;;;;;;;2.50;1.20;;;;;;;;;;5018551;28;20049;-79
2022/08/02 04:49:19;;;;;;;2.17;1.00;;;;;;;;;;5035669;28;20033;-79
2022/08/02 04:51:45;;;;;;;1.60;1.20;;;;;;;;;;5019299;28;20041;-79
2022/08/02 04:54:10;;;;;;;1.38;0.93;;;;;;;;;;5035483;28;20041;-79
2022/08/02 04:56:39;;;;;;;1.50;1.00;;;;;;;;;;5035204;28;20392;-79
2022/08/02 04:59:04;;;;;;;2.38;1.08;;;;;;;;;;5018732;28;20040;-79
2022/08/02 05:01:31;;;;;;;3.10;1.08;;;;;;;;;;5002484;28;20045;-79
2022/08/02 05:03:56;;;;;;;1.92;1.17;;;;;;;;;;5051695;28;20037;-80
2022/08/02 05:06:21;;;;;;;2.22;0.80;;;;;;;;;;5018692;28;20098;-79
2022/08/02 05:08:47;;;;;;;1.75;1.08;;;;;;;;;;5018847;28;20407;-79
2022/08/02 05:11:12;;;;;;;2.65;1.13;;;;;;;;;;5018555;28;20430;-79
2022/08/02 05:13:40;;;;;;;3.20;1.33;;;;;;;;;;5035008;28;20033;-80
2022/08/02 05:16:05;;;;;;;3.00;1.50;;;;;;;;;;5017979;28;20084;-80
2022/08/02 05:18:30;;;;;;;2.08;0.90;;;;;;;;;;5034666;28;20491;-80
2022/08/02 05:20:56;;;;;;;3.58;1.33;;;;;;;;;;5034720;28;20044;-80
2022/08/02 05:23:21;;;;;;;1.45;0.93;;;;;;;;;;5018698;28;20404;-80
2022/08/02 05:25:47;;;;;;;2.65;1.33;;;;;;;;;;5034674;28;20082;-80
2022/08/02 05:28:12;;;;;;;1.63;0.88;;;;;;;;;;5034604;28;20430;-80
2022/08/02 05:30:38;;;;;;;3.00;1.10;;;;;;;;;;5018180;28;20157;-80
2022/08/02 05:33:04;;;;;;;1.92;0.90;;;;;;;;;;5001867;28;20029;-79
2022/08/02 05:35:29;;;;;;;2.22;1.40;;;;;;;;;;5018424;28;20060;-79
2022/08/02 05:37:55;;;;;;;1.77;1.13;;;;;;;;;;5018132;28;20037;-79
2022/08/02 05:40:20;;;;;;;2.33;1.25;;;;;;;;;;5018303;28;20032;-80
2022/08/02 05:42:46;;;;;;;2.08;0.98;;;;;;;;;;5017945;28;20029;-80
2022/08/02 05:45:12;;;;;;;2.85;1.25;;;;;;;;;;5017969;28;20037;-79
2022/08/02 05:47:38;;;;;;;2.47;1.00;;;;;;;;;;5016382;28;20113;-79
2022/08/02 05:50:05;;;;;;;3.17;1.60;;;;;;;;;;5016257;28;20446;-79
2022/08/02 05:52:56;;;;;;;4.38;1.77;;;;;;;;;;5009652;28;20079;-79
2022/08/02 05:55:34;;;;;;;3.85;1.45;;;;;;;;;;5033525;28;20148;-79
2022/08/02 05:58:34;;;;;;;4.35;1.77;;;;;;;;;;4998157;28;20037;-79
2022/08/02 06:00:59;;;;;;;4.30;1.30;;;;;;;;;;5030553;28;20034;-80
2022/08/02 06:03:35;;;;;;;3.47;1.75;;;;;;;;;;4981684;28;20029;-79
2022/08/02 06:06:05;;;;;;;5.78;2.08;;;;;;;;;;5014897;28;20056;-79
2022/08/02 06:08:44;;;;;;;3.30;1.60;;;;;;;;;;5047341;28;20064;-80
2022/08/02 06:11:19;;;;;;;4.75;2.00;;;;;;;;;;5046508;28;20041;-79
2022/08/02 06:13:45;;;;;;;2.80;1.48;;;;;;;;;;5046395;28;20446;-80
2022/08/02 06:16:10;;;;;;;2.90;1.55;;;;;;;;;;5047044;28;20048;-79
2022/08/02 06:18:36;;;;;;;3.30;1.48;;;;;;;;;;5046896;28;20041;-79
2022/08/02 06:21:03;;;;;;;3.13;1.15;;;;;;;;;;5046902;28;20523;-79
2022/08/02 06:23:28;;;;;;;3.63;1.63;;;;;;;;;;5050266;28;20037;-80
2022/08/02 06:25:55;;;;;;;3.28;1.40;;;;;;;;;;5033844;28;20039;-79
2022/08/02 06:28:21;;;;;;;2.47;1.40;;;;;;;;;;5017121;28;20567;-80
2022/08/02 06:30:46;;;;;;;2.90;1.23;;;;;;;;;;5033683;28;20124;-79
2022/08/02 06:33:12;;;;;;;2.17;1.08;;;;;;;;;;5001153;28;20041;-79
2022/08/02 06:36:02;;;;;;;2.67;1.40;;;;;;;;;;5017546;28;20036;-77
2022/08/02 06:38:32;;;;;;;2.83;1.08;;;;;;;;;;5050571;28;20036;-80
2022/08/02 06:41:05;;;;;;;2.00;1.20;;;;;;;;;;5017399;28;20045;-79
2022/08/02 06:43:43;;;;;;;3.08;1.40;;;;;;;;;;5017161;28;20072;-79
2022/08/02 06:46:08;;;;;;;3.72;1.23;;;;;;;;;;5033560;28;20083;-79
2022/08/02 06:48:35;;;;;;;2.03;1.10;;;;;;;;;;5033278;28;20438;-79
2022/08/02 06:51:04;;;;;;;3.75;1.92;;;;;;;;;;5017250;28;20086;-79
2022/08/02 06:53:29;;;;;;;6.90;2.80;;;;;;;;;;5016953;28;20033;-79
2022/08/02 06:55:54;;;;;;;4.28;3.10;;;;;;;;;;5000196;28;20083;-79
2022/08/02 06:58:20;;;;;;;4.43;2.35;;;;;;;;;;5013454;28;20072;-79
2022/08/02 07:00:46;;;;;;;9.00;2.30;;;;;;;;;;5013628;28;20408;-79
2022/08/02 07:03:11;;;;;;;2.25;1.30;;;;;;;;;;5013849;28;20401;-79
2022/08/02 07:05:37;;;;;;;3.95;1.75;;;;;;;;;;5013637;28;20483;-79
2022/08/02 07:08:02;;;;;;;5.72;1.90;;;;;;;;;;4997627;28;20047;-79
2022/08/02 07:10:28;;;;;;;2.50;1.35;;;;;;;;;;4981477;28;20114;-79
2022/08/02 07:12:54;;;;;;;2.00;1.08;;;;;;;;;;5013404;28;20414;-79
2022/08/02 07:15:20;;;;;;;2.38;1.13;;;;;;;;;;4997119;28;20045;-79
2022/08/02 07:17:45;;;;;;;2.45;0.93;;;;;;;;;;5013611;28;20045;-80
2022/08/02 07:20:12;;;;;;;2.83;1.35;;;;;;;;;;5013060;28;20099;-79
2022/08/02 07:22:37;;;;;;;3.25;1.45;;;;;;;;;;5017928;28;20041;-79
2022/08/02 07:25:04;;;;;;;2.85;1.20;;;;;;;;;;5021020;28;20033;-79
2022/08/02 07:27:29;;;;;;;2.53;1.60;;;;;;;;;;5019964;28;20071;-80
2022/08/02 07:29:55;;;;;;;3.90;1.30;;;;;;;;;;5037140;28;20036;-79
2022/08/02 07:32:22;;;;;;;2.67;1.30;;;;;;;;;;4998107;28;20033;-81
2022/08/02 07:34:48;;;;;;;4.53;1.42;;;;;;;;;;5002137;28;20056;-80
2022/08/02 07:37:13;;;;;;;3.25;1.40;;;;;;;;;;5000643;28;20056;-80
2022/08/02 07:39:39;;;;;;;2.03;1.05;;;;;;;;;;5007848;28;20037;-81
2022/08/02 07:42:04;;;;;;;1.88;1.00;;;;;;;;;;5036993;28;20045;-79
2022/08/02 07:44:33;;;;;;;1.67;1.15;;;;;;;;;;5036652;28;20032;-80
2022/08/02 07:47:02;;;;;;;2.47;1.38;;;;;;;;;;5036460;28;20033;-79
2022/08/02 07:49:29;;;;;;;2.35;1.30;;;;;;;;;;4992900;28;20099;-79
2022/08/02 07:51:54;;;;;;;4.10;1.45;;;;;;;;;;5020433;28;20045;-79
2022/08/02 07:54:20;;;;;;;4.20;1.38;;;;;;;;;;5000587;28;20052;-79
2022/08/02 07:56:45;;;;;;;2.88;1.65;;;;;;;;;;5040817;28;20068;-79
2022/08/02 07:59:11;;;;;;;3.65;1.48;;;;;;;;;;5019747;28;20095;-79
2022/08/02 08:01:36;;;;;;;1.83;1.33;;;;;;;;;;5020169;28;20041;-78
2022/08/02 08:04:03;;;;;;;2.55;1.55;;;;;;;;;;5036435;28;20045;-79
2022/08/02 08:06:29;;;;;;;2.53;1.25;;;;;;;;;;5036136;28;20033;-79
2022/08/02 08:08:55;;;;;;;3.88;2.22;;;;;;;;;;5036463;28;20036;-79
2022/08/02 08:11:21;;;;;;;3.33;1.65;;;;;;;;;;5003181;28;20029;-79
2022/08/02 08:13:46;;;;;;;3.40;1.70;;;;;;;;;;5019689;28;20048;-79
2022/08/02 08:16:12;;;;;;;3.33;1.52;;;;;;;;;;5020401;28;20041;-80
2022/08/02 08:18:37;;;;;;;3.15;1.30;;;;;;;;;;5020938;28;20043;-78
2022/08/02 08:21:03;;;;;;;4.45;2.42;;;;;;;;;;5019793;28;20041;-79
2022/08/02 08:23:28;;;;;;;6.97;3.78;;;;;;;;;;5019482;28;20045;-79
2022/08/02 08:25:54;;;;;;;4.75;2.55;;;;;;;;;;5015789;28;20515;-79
2022/08/02 08:28:19;;;;;;;3.85;1.70;;;;;;;;;;5019793;28;20458;-79
2022/08/02 08:30:46;;;;;;;2.85;1.38;;;;;;;;;;5036076;28;20122;-79
2022/08/02 08:33:12;;;;;;;4.00;2.00;;;;;;;;;;5019737;28;20114;-79
2022/08/02 08:35:37;;;;;;;2.47;1.33;;;;;;;;;;5011330;28;20045;-79
2022/08/02 08:38:03;;;;;;;2.60;1.08;;;;;;;;;;4999819;28;20182;-79
2022/08/02 08:40:28;;;;;;;2.78;1.20;;;;;;;;;;5009769;28;20064;-80
2022/08/02 08:42:54;;;;;;;3.03;1.40;;;;;;;;;;5007978;28;20060;-79
2022/08/02 08:45:19;;;;;;;3.15;1.30;;;;;;;;;;5010316;28;20041;-79
2022/08/02 08:47:46;;;;;;;2.42;1.08;;;;;;;;;;5021334;28;20040;-80
2022/08/02 08:50:23;;;;;;;2.88;1.45;;;;;;;;;;5023874;28;20104;-80
2022/08/02 08:53:03;;;;;;;2.90;1.23;;;;;;;;;;5010891;28;20167;-80
2022/08/02 08:55:29;;;;;;;2.30;1.40;;;;;;;;;;5009909;28;20033;-80
2022/08/02 08:57:54;;;;;;;4.72;0.90;;;;;;;;;;5022911;28;20045;-80
2022/08/02 09:00:20;;;;;;;3.72;1.40;;;;;;;;;;5010827;28;20041;-79
2022/08/02 09:02:45;;;;;;;3.97;1.40;;;;;;;;;;5015757;28;20413;-80
2022/08/02 09:05:12;;;;;;;3.05;1.25;;;;;;;;;;5015091;28;20030;-80
2022/08/02 09:07:40;;;;;;;4.53;1.10;;;;;;;;;;5015021;28;20041;-79
2022/08/02 09:10:30;;;;;;;3.20;0.88;;;;;;;;;;5015587;28;20037;-80
2022/08/02 09:13:06;;;;;;;2.22;1.40;;;;;;;;;;5031904;28;20082;-79
2022/08/02 09:15:31;;;;;;;4.50;1.20;;;;;;;;;;4998847;28;20037;-80
2022/08/02 09:17:57;;;;;;;2.17;1.20;;;;;;;;;;5015217;28;20515;-80
2022/08/02 09:20:22;;;;;;;3.17;1.20;;;;;;;;;;5014790;28;20037;-80
2022/08/02 09:23:09;;;;;;;3.40;1.70;;;;;;;;;;5014812;28;20048;-80
2022/08/02 09:25:34;;;;;;;2.97;1.35;;;;;;;;;;5031322;28;20083;-80
2022/08/02 09:28:01;;;;;;;6.47;1.40;;;;;;;;;;5014652;28;20097;-79
2022/08/02 09:30:27;;;;;;;7.03;1.95;;;;;;;;;;5014312;28;20045;-79
2022/08/02 09:32:52;;;;;;;2.38;1.00;;;;;;;;;;5015128;28;20045;-79
2022/08/02 09:35:38;;;;;;;2.17;1.10;;;;;;;;;;5014659;28;20099;-79
2022/08/02 09:38:11;;;;;;;2.40;1.02;;;;;;;;;;5015344;28;20045;-80
2022/08/02 09:40:37;;;;;;;3.25;1.15;;;;;;;;;;4998518;28;20160;-79
2022/08/02 09:43:03;;;;;;;2.40;1.13;;;;;;;;;;5015447;28;20029;-81
2022/08/02 09:45:30;;;;;;;2.03;0.93;;;;;;;;;;5014559;28;20045;-81
2022/08/02 09:47:56;;;;;;;3.03;1.40;;;;;;;;;;5014206;28;20033;-82
2022/08/02 09:50:21;;;;;;;3.97;1.23;;;;;;;;;;5014627;28;20128;-83
2022/08/02 09:52:47;;;;;;;1.75;1.00;;;;;;;;;;5013688;28;20451;-84
2022/08/02 09:55:13;;;;;;;2.45;1.30;;;;;;;;;;5014437;28;20041;-84
2022/08/02 09:57:38;;;;;;;5.40;1.45;;;;;;;;;;5014408;28;20428;-85
2022/08/02 10:00:11;;;;;;;3.85;1.20;;;;;;;;;;4982546;28;20041;-85
2022/08/02 10:02:36;;;;;;;2.50;1.38;;;;;;;;;;4999068;28;20034;-85
2022/08/02 10:05:02;;;;;;;4.00;1.42;;;;;;;;;;4997760;28;20036;-85
2022/08/02 10:07:27;;;;;;;2.70;1.27;;;;;;;;;;4997676;28;20766;-83
2022/08/02 10:09:53;;;;;;;4.50;1.60;;;;;;;;;;4998190;28;20045;-83
2022/08/02 10:12:19;;;;;;;2.95;1.83;;;;;;;;;;4981065;28;20451;-83
2022/08/02 10:14:45;;;;;;;2.88;1.17;;;;;;;;;;4996474;28;20381;-83
2022/08/02 10:17:10;;;;;;;4.35;1.50;;;;;;;;;;5012513;28;20518;-83
2022/08/02 10:19:35;;;;;;;2.50;1.45;;;;;;;;;;4996951;28;20400;-83
2022/08/02 10:22:04;;;;;;;2.83;1.17;;;;;;;;;;5029854;28;20044;-83
2022/08/02 10:24:31;;;;;;;4.03;1.67;;;;;;;;;;4997525;28;20451;-83
2022/08/02 10:26:58;;;;;;;2.70;1.70;;;;;;;;;;5013418;28;20419;-83
2022/08/02 10:29:26;;;;;;;3.90;1.50;;;;;;;;;;4996939;28;20049;-83
2022/08/02 10:32:00;;;;;;;3.67;1.58;;;;;;;;;;4997720;28;20132;-83
2022/08/02 10:34:31;;;;;;;4.47;2.08;;;;;;;;;;5014235;28;20048;-82
2022/08/02 10:36:59;;;;;;;4.70;2.10;;;;;;;;;;5013441;28;20033;-83
2022/08/02 10:39:25;;;;;;;4.78;1.60;;;;;;;;;;4997047;28;20349;-82
2022/08/02 10:41:51;;;;;;;5.38;3.38;;;;;;;;;;4997146;28;20037;-82
2022/08/02 10:44:23;;;;;;;5.60;2.70;;;;;;;;;;4997660;28;20120;-83
2022/08/02 10:46:49;;;;;;;6.00;2.95;;;;;;;;;;5017447;28;20026;-83
2022/08/02 10:49:18;;;;;;;5.93;2.03;;;;;;;;;;4997091;28;20530;-83
2022/08/02 10:51:59;;;;;;;3.58;1.75;;;;;;;;;;5016064;28;20033;-83
2022/08/02 10:54:35;;;;;;;5.35;1.52;;;;;;;;;;5033535;28;20523;-81
2022/08/02 10:57:01;;;;;;;3.00;1.80;;;;;;;;;;4998056;28;20042;-82
2022/08/02 10:59:32;;;;;;;2.63;1.60;;;;;;;;;;5017804;28;20052;-82
2022/08/02 11:02:01;;;;;;;4.30;0.90;;;;;;;;;;4985742;28;20037;-82
2022/08/02 11:04:36;;;;;;;2.03;1.17;;;;;;;;;;4985641;28;20140;-82
2022/08/02 11:07:08;;;;;;;2.97;1.08;;;;;;;;;;5034989;28;20034;-81
2022/08/02 11:09:34;;;;;;;4.57;1.30;;;;;;;;;;5033681;28;20399;-85
2022/08/02 11:12:02;;;;;;;4.40;1.65;;;;;;;;;;5017120;28;20030;-85
2022/08/02 11:14:27;;;;;;;3.85;1.17;;;;;;;;;;5017922;28;20373;-85
2022/08/02 11:16:55;;;;;;;4.00;1.75;;;;;;;;;;5017448;28;20084;-85
2022/08/02 11:19:24;;;;;;;3.13;1.30;;;;;;;;;;5016984;28;20033;-84
2022/08/02 11:22:03;;;;;;;2.55;1.27;;;;;;;;;;5001785;28;20045;-83
2022/08/02 11:24:32;;;;;;;4.18;1.40;;;;;;;;;;5000764;28;20033;-85
2022/08/02 11:26:59;;;;;;;2.72;1.33;;;;;;;;;;4985105;28;20147;-84
2022/08/02 11:29:54;;;;;;;4.30;1.38;;;;;;;;;;5001107;28;20037;-84
2022/08/02 11:32:23;;;;;;;8.70;1.90;;;;;;;;;;5000849;28;20069;-84
2022/08/02 11:34:50;;;;;;;12.63;2.38;;;;;;;;;;4984399;28;20029;-84
2022/08/02 11:37:33;;;;;;;6.85;1.65;;;;;;;;;;4984976;28;20033;-85
2022/08/02 11:39:59;;;;;;;4.78;1.83;;;;;;;;;;5001266;28;20026;-85
2022/08/02 11:42:38;;;;;;;3.05;1.30;;;;;;;;;;5000857;28;20044;-85
2022/08/02 11:45:05;;;;;;;2.45;1.20;;;;;;;;;;4984740;28;20041;-84
2022/08/02 11:47:30;;;;;;;4.28;1.55;;;;;;;;;;4993441;28;20116;-85
2022/08/02 11:50:06;;;;;;;3.20;1.13;;;;;;;;;;5002993;28;20051;-85
2022/08/02 11:52:32;;;;;;;6.15;1.73;;;;;;;;;;5018697;28;20037;-82
2022/08/02 11:54:58;;;;;;;4.57;1.17;;;;;;;;;;5002820;28;20510;-82
2022/08/02 11:57:23;;;;;;;2.85;1.23;;;;;;;;;;4989313;28;20042;-83
2022/08/02 11:59:51;;;;;;;1.42;0.88;;;;;;;;;;5014591;28;20431;-82
2022/08/02 12:02:16;;;;;;;2.03;1.10;;;;;;;;;;4982513;28;20105;-83
2022/08/02 12:04:42;;;;;;;2.40;1.15;;;;;;;;;;4997797;28;20048;-82
2022/08/02 12:07:07;;;;;;;1.52;1.02;;;;;;;;;;4982653;28;20095;-82
2022/08/02 12:09:34;;;;;;;2.65;1.20;;;;;;;;;;4997957;28;20385;-82
2022/08/02 12:11:59;;;;;;;1.65;0.98;;;;;;;;;;4999487;28;20042;-82
2022/08/02 12:14:26;;;;;;;2.58;1.23;;;;;;;;;;5016255;28;20080;-82
2022/08/02 12:19:35;;;;;;;3.05;1.23;;;;;;;;;;5018574;28;20373;-83
2022/08/02 12:22:09;;;;;;;2.00;1.08;;;;;;;;;;4999899;28;20087;-83
2022/08/02 12:24:34;;;;;;;2.78;1.00;;;;;;;;;;5000281;28;20048;-83
2022/08/02 12:27:00;;;;;;;1.63;1.05;;;;;;;;;;4999638;28;20041;-81
2022/08/02 12:29:33;;;;;;;2.70;1.05;;;;;;;;;;5016185;28;20392;-82
2022/08/02 12:31:59;;;;;;;3.00;0.90;;;;;;;;;;5016092;28;20083;-82
2022/08/02 12:34:26;;;;;;;2.33;1.30;;;;;;;;;;5015941;28;20029;-82
2022/08/02 12:36:57;;;;;;;2.30;0.98;;;;;;;;;;4983740;28;20124;-84
2022/08/02 12:39:32;;;;;;;2.90;1.10;;;;;;;;;;5016345;28;20403;-83
2022/08/02 12:41:58;;;;;;;2.40;0.93;;;;;;;;;;4999868;28;20037;-82
2022/08/02 12:44:23;;;;;;;2.33;1.20;;;;;;;;;;5016117;28;20444;-82
2022/08/02 12:47:05;;;;;;;2.30;1.23;;;;;;;;;;5022897;28;20036;-83
2022/08/02 12:49:32;;;;;;;2.63;0.63;;;;;;;;;;5002810;28;20052;-83
2022/08/02 12:51:57;;;;;;;2.03;1.10;;;;;;;;;;5002915;28;20074;-83
2022/08/02 12:54:24;;;;;;;1.75;1.10;;;;;;;;;;5019331;28;20041;-83
2022/08/02 12:56:50;;;;;;;2.92;1.02;;;;;;;;;;5015573;28;20411;-82
2022/08/02 12:59:16;;;;;;;3.35;1.48;;;;;;;;;;4983227;28;20083;-81
2022/08/02 13:01:41;;;;;;;3.45;1.48;;;;;;;;;;4998940;28;20440;-82
2022/08/02 13:04:07;;;;;;;2.30;1.00;;;;;;;;;;4999146;28;20156;-83
2022/08/02 13:06:32;;;;;;;4.90;1.25;;;;;;;;;;4982863;28;20040;-83
2022/08/02 13:08:58;;;;;;;2.63;0.80;;;;;;;;;;4999265;28;20395;-83
2022/08/02 13:11:24;;;;;;;1.98;1.05;;;;;;;;;;4982799;28;20037;-83
2022/08/02 13:13:49;;;;;;;2.90;1.15;;;;;;;;;;5015546;28;20492;-83
2022/08/02 13:16:15;;;;;;;2.28;0.90;;;;;;;;;;4998539;28;20522;-83
2022/08/02 13:18:40;;;;;;;2.05;0.98;;;;;;;;;;4999052;28;20121;-84
2022/08/02 13:21:06;;;;;;;2.95;1.30;;;;;;;;;;4998364;28;20100;-83
2022/08/02 13:23:32;;;;;;;3.55;0.90;;;;;;;;;;4999275;28;20046;-83
2022/08/02 13:25:57;;;;;;;2.60;1.23;;;;;;;;;;4998978;28;20041;-83
2022/08/02 13:28:24;;;;;;;2.67;1.10;;;;;;;;;;4998828;28;20042;-82
2022/08/02 13:30:49;;;;;;;2.58;0.90;;;;;;;;;;4982594;28;20442;-83
2022/08/02 13:33:15;;;;;;;3.65;0.85;;;;;;;;;;5014946;28;20397;-82
2022/08/02 13:35:42;;;;;;;2.17;0.98;;;;;;;;;;5015033;28;20029;-85
2022/08/02 13:38:07;;;;;;;4.53;1.10;;;;;;;;;;4982624;28;20144;-85
2022/08/02 13:40:33;;;;;;;2.10;1.10;;;;;;;;;;4998529;28;20026;-83
2022/08/02 13:42:59;;;;;;;2.70;0.90;;;;;;;;;;4998672;28;20033;-85
2022/08/02 13:45:25;;;;;;;2.90;0.93;;;;;;;;;;4981846;28;20390;-85
2022/08/02 13:47:51;;;;;;;3.80;1.17;;;;;;;;;;5030206;28;20071;-84
2022/08/02 13:50:16;;;;;;;3.72;1.00;;;;;;;;;;5014202;28;20029;-84
2022/08/02 13:52:55;;;;;;;4.10;0.82;;;;;;;;;;5018916;28;20037;-84
2022/08/02 13:55:20;;;;;;;3.53;1.08;;;;;;;;;;5034526;28;20398;-83
2022/08/02 13:57:46;;;;;;;2.15;0.70;;;;;;;;;;4998027;28;20032;-84
2022/08/02 14:00:13;;;;;;;2.45;0.85;;;;;;;;;;4998153;28;20464;-84
2022/08/02 14:02:38;;;;;;;2.53;1.00;;;;;;;;;;5014577;28;20071;-84
2022/08/02 14:05:04;;;;;;;4.55;0.90;;;;;;;;;;5014173;28;20041;-83
2022/08/02 14:07:30;;;;;;;3.42;0.82;;;;;;;;;;4981817;28;20400;-83
2022/08/02 14:09:55;;;;;;;2.40;0.85;;;;;;;;;;5014135;28;20034;-83
2022/08/02 14:12:23;;;;;;;2.85;0.98;;;;;;;;;;4997904;28;20495;-83
2022/08/02 14:14:49;;;;;;;1.85;0.90;;;;;;;;;;5014361;28;20037;-84
2022/08/02 14:17:17;;;;;;;2.60;0.80;;;;;;;;;;4981593;28;20029;-83
2022/08/02 14:19:42;;;;;;;1.38;0.65;;;;;;;;;;5014094;28;20041;-84
2022/08/02 14:22:08;;;;;;;1.75;0.85;;;;;;;;;;4981977;28;20076;-84
2022/08/02 14:24:34;;;;;;;2.97;1.17;;;;;;;;;;4997837;28;20509;-86
2022/08/02 14:27:00;;;;;;;2.50;1.10;;;;;;;;;;5014038;28;20049;-86
2022/08/02 14:29:27;;;;;;;6.47;1.25;;;;;;;;;;5014396;28;20029;-86
2022/08/02 14:31:53;;;;;;;2.83;1.27;;;;;;;;;;5014015;28;20061;-86
2022/08/02 14:34:19;;;;;;;2.80;1.10;;;;;;;;;;4981772;28;20395;-86
2022/08/02 14:36:44;;;;;;;2.65;1.00;;;;;;;;;;4997796;28;20033;-86
2022/08/02 14:39:10;;;;;;;4.70;1.00;;;;;;;;;;4997654;28;20100;-84
2022/08/02 14:41:36;;;;;;;2.00;1.10;;;;;;;;;;5013405;28;20415;-84
2022/08/02 14:44:02;;;;;;;2.08;0.88;;;;;;;;;;4997631;28;20025;-84
2022/08/02 14:46:34;;;;;;;4.10;0.90;;;;;;;;;;4997452;28;20030;-84
2022/08/02 14:49:03;;;;;;;;;;;;;;;;;;4998155;28;20381;-84
2022/08/02 14:51:32;;;;;;;3.38;1.65;;;;;;;;;;5014100;28;19916;-87
2022/08/02 14:53:58;;;;;;;1.55;1.00;;;;;;;;;;5000907;28;20051;-83